createdAt,value
2022-11-05T12:10:12.796Z,101542.56
2022-11-05T12:13:20.914Z,101548.78
2022-11-05T12:15:56.759Z,101544.47
2022-11-05T12:18:48.457Z,101537.59
2022-11-05T12:21:51.522Z,101551.59
2022-11-05T12:24:39.829Z,101552.47
2022-11-05T12:27:47.109Z,101556.06
2022-11-05T12:30:19.962Z,101552.63
2022-11-05T12:32:50.802Z,101559.59
2022-11-05T12:35:48.233Z,101556.19
2022-11-05T12:38:32.531Z,101560.59
2022-11-05T12:41:42.066Z,101557.16
2022-11-05T12:44:19.967Z,101565.91
2022-11-05T12:47:16.871Z,101557.13
2022-11-05T12:49:52.356Z,101566.72
2022-11-05T12:53:09.806Z,101573.72
2022-11-05T12:55:48.082Z,101570.13
2022-11-05T12:58:31.613Z,101563.13
2022-11-05T13:01:03.816Z,101575.38
2022-11-05T13:03:52.693Z,101581.50
2022-11-05T13:06:25.134Z,101580.66
2022-11-05T13:09:14.829Z,101579.69
2022-11-05T13:11:49.702Z,101591.03
2022-11-05T13:14:21.654Z,101597.09
2022-11-05T13:17:03.948Z,101601.41
2022-11-05T13:19:38.012Z,101599.53
2022-11-05T13:22:21.147Z,101613.41
2022-11-05T13:24:57.769Z,101605.50
2022-11-05T13:27:42.815Z,101609.84
2022-11-05T13:30:16.919Z,101619.41
2022-11-05T13:32:49.739Z,101616.75
2022-11-05T13:35:25.934Z,101616.75
2022-11-05T13:38:13.831Z,101620.25
2022-11-05T13:40:55.978Z,101628.91
2022-11-05T13:43:29.058Z,101626.28
2022-11-05T13:46:02.950Z,101634.94
2022-11-05T13:48:39.775Z,101630.59
2022-11-05T13:51:12.137Z,101632.28
2022-11-05T13:53:47.591Z,101631.41
2022-11-05T13:56:29.245Z,101632.19
2022-11-05T13:59:10.794Z,101633.00
2022-11-05T14:01:58.594Z,101633.84
2022-11-05T14:04:25.852Z,101634.69
2022-11-05T14:06:52.905Z,101636.47
2022-11-05T14:09:26.011Z,101633.91
2022-11-05T14:11:57.088Z,101624.25
2022-11-05T14:14:30.450Z,101648.72
2022-11-05T14:17:09.882Z,101643.47
2022-11-05T14:19:51.820Z,101649.44
2022-11-05T14:22:33.914Z,101661.59
2022-11-05T14:25:02.527Z,101641.41
2022-11-05T14:27:29.053Z,101661.44
2022-11-05T14:29:56.083Z,101654.41
2022-11-05T14:32:25.609Z,101664.00
2022-11-05T14:35:34.410Z,101663.13
2022-11-05T14:38:01.233Z,101664.81
2022-11-05T14:40:37.491Z,101663.06
2022-11-05T14:43:05.988Z,101663.13
2022-11-05T14:45:39.376Z,101663.94
2022-11-05T14:48:25.327Z,101663.88
2022-11-05T14:50:52.235Z,101669.13
2022-11-05T14:53:32.214Z,101670.88
2022-11-05T14:56:04.479Z,101675.28
2022-11-05T14:58:39.978Z,101679.72
2022-11-05T15:01:10.016Z,101683.13
2022-11-05T15:03:45.449Z,101685.72
2022-11-05T15:06:33.715Z,101682.25
2022-11-05T15:09:03.539Z,101681.44
2022-11-05T15:11:35.876Z,101684.03
2022-11-05T15:15:00.813Z,101684.06
2022-11-05T15:17:58.991Z,101690.13
2022-11-05T15:20:49.790Z,101698.88
2022-11-05T15:23:21.662Z,101704.88
2022-11-05T15:26:15.215Z,101700.50
2022-11-05T15:28:48.793Z,101703.97
2022-11-05T15:31:15.402Z,101708.31
2022-11-05T15:33:47.675Z,101709.19
2022-11-05T15:36:21.108Z,101710.03
2022-11-05T15:39:08.104Z,101704.72
2022-11-05T15:41:35.770Z,101711.59
2022-11-05T15:44:02.835Z,101707.13
2022-11-05T15:46:29.973Z,101710.69
2022-11-05T15:49:07.102Z,101718.53
2022-11-05T15:51:35.615Z,101713.28
2022-11-05T15:54:29.053Z,101715.84
2022-11-05T15:57:00.056Z,101714.81
2022-11-05T15:59:29.291Z,101713.03
2022-11-05T16:02:28.189Z,101708.72
2022-11-05T16:04:55.344Z,101714.75
2022-11-05T16:07:22.235Z,101712.97
2022-11-05T16:09:58.141Z,101706.94
2022-11-05T16:12:31.429Z,101705.25
2022-11-05T16:15:10.281Z,101714.78
2022-11-05T16:17:41.990Z,101720.91
2022-11-05T16:20:34.090Z,101724.31
2022-11-05T16:23:22.475Z,101728.44
2022-11-05T16:25:54.759Z,101728.31
2022-11-05T16:28:24.403Z,101727.44
2022-11-05T16:30:54.877Z,101739.56
2022-11-05T16:33:22.101Z,101735.19
2022-11-05T16:35:51.573Z,101730.03
2022-11-05T16:38:20.878Z,101730.03
2022-11-05T16:40:47.638Z,101732.69
2022-11-05T16:43:23.502Z,101737.81
2022-11-05T16:45:54.190Z,101743.03
2022-11-05T16:48:20.789Z,101738.75
2022-11-05T16:50:47.467Z,101731.69
2022-11-05T16:53:14.211Z,101738.69
2022-11-05T16:55:42.617Z,101736.94
2022-11-05T16:58:20.704Z,101739.44
2022-11-05T17:00:49.239Z,101739.34
2022-11-05T17:03:15.871Z,101747.16
2022-11-05T17:05:42.954Z,101746.31
2022-11-05T17:08:12.575Z,101745.38
2022-11-05T17:10:41.974Z,101738.34
2022-11-05T17:13:14.398Z,101744.47
2022-11-05T17:15:43.836Z,101741.03
2022-11-05T17:18:15.441Z,101742.78
2022-11-05T17:20:57.824Z,101755.09
2022-11-05T17:23:26.849Z,101749.84
2022-11-05T17:25:57.284Z,101745.41
2022-11-05T17:28:23.941Z,101743.59
2022-11-05T17:30:56.323Z,101747.81
2022-11-05T17:33:25.074Z,101740.75
2022-11-05T17:35:52.545Z,101762.66
2022-11-05T17:38:19.849Z,101755.59
2022-11-05T17:40:46.549Z,101765.28
2022-11-05T17:43:13.736Z,101767.06
2022-11-05T17:45:47.940Z,101759.28
2022-11-05T17:48:15.546Z,101768.91
2022-11-05T17:50:44.326Z,101771.38
2022-11-05T17:53:17.699Z,101768.66
2022-11-05T17:55:45.882Z,101763.47
2022-11-05T17:58:12.934Z,101766.19
2022-11-05T18:00:40.064Z,101773.09
2022-11-05T18:03:06.941Z,101774.91
2022-11-05T18:05:34.738Z,101779.22
2022-11-05T18:08:01.754Z,101781.84
2022-11-05T18:10:30.103Z,101781.84
2022-11-05T18:12:56.743Z,101771.19
2022-11-05T18:15:24.228Z,101780.91
2022-11-05T18:17:50.846Z,101783.50
2022-11-05T18:20:19.438Z,101787.94
2022-11-05T18:22:49.371Z,101799.22
2022-11-05T18:25:16.810Z,101791.34
2022-11-05T18:27:44.047Z,101800.88
2022-11-05T18:30:15.627Z,101796.41
2022-11-05T18:32:44.341Z,101801.50
2022-11-05T18:35:11.911Z,101796.31
2022-11-05T18:37:39.728Z,101754.19
2022-11-05T18:40:07.527Z,101811.94
2022-11-05T18:42:34.134Z,101805.72
2022-11-05T18:45:00.893Z,101813.53
2022-11-05T18:47:27.624Z,101813.56
2022-11-05T18:49:54.252Z,101817.81
2022-11-05T18:52:21.646Z,101799.31
2022-11-05T18:54:48.198Z,101805.41
2022-11-05T18:57:14.760Z,101816.03
2022-11-05T18:59:46.766Z,101809.66
2022-11-05T19:02:14.219Z,101826.38
2022-11-05T19:04:55.098Z,101819.41
2022-11-05T19:07:29.309Z,101821.06
2022-11-05T19:09:56.846Z,101825.41
2022-11-05T19:12:23.449Z,101828.00
2022-11-05T19:14:50.160Z,101821.88
2022-11-05T19:17:16.753Z,101827.97
2022-11-05T19:19:43.325Z,101832.38
2022-11-05T19:22:11.399Z,101833.22
2022-11-05T19:24:37.985Z,101839.25
2022-11-05T19:27:04.579Z,101841.00
2022-11-05T19:29:31.194Z,101844.50
2022-11-05T19:31:57.766Z,101829.56
2022-11-05T19:34:24.389Z,101849.59
2022-11-05T19:36:51.019Z,101845.00
2022-11-05T19:39:17.587Z,101846.72
2022-11-05T19:41:44.217Z,101841.53
2022-11-05T19:44:11.429Z,101838.78
2022-11-05T19:46:38.548Z,101860.53
2022-11-05T19:49:05.236Z,101852.66
2022-11-05T19:51:34.424Z,101849.19
2022-11-05T19:54:02.841Z,101843.94
2022-11-05T19:56:31.784Z,101859.78
2022-11-05T19:59:00.439Z,101856.28
2022-11-05T20:01:28.768Z,101857.94
2022-11-05T20:03:57.178Z,101858.78
2022-11-05T20:06:28.834Z,101866.53
2022-11-05T20:11:50.038Z,101849.84
2022-11-05T20:14:17.087Z,101865.56
2022-11-05T20:16:45.036Z,101868.91
2022-11-05T20:19:15.954Z,101867.13
2022-11-05T20:21:43.241Z,101865.44
2022-11-05T20:24:12.595Z,101864.50
2022-11-05T20:26:39.788Z,101859.19
2022-11-05T20:29:13.071Z,101869.63
2022-11-05T20:31:39.692Z,101866.06
2022-11-05T20:34:07.461Z,101870.50
2022-11-05T20:36:34.035Z,101874.00
2022-11-05T20:39:02.840Z,101869.63
2022-11-05T20:41:30.824Z,101881.00
2022-11-05T20:43:57.766Z,101876.53
2022-11-05T20:46:25.250Z,101873.88
2022-11-05T20:48:52.527Z,101879.91
2022-11-05T20:51:25.367Z,101883.31
2022-11-05T20:54:00.098Z,101882.47
2022-11-05T20:56:32.614Z,101885.03
2022-11-05T20:59:01.197Z,101868.06
2022-11-05T21:01:30.767Z,101888.97
2022-11-05T21:03:57.764Z,101878.47
2022-11-05T21:06:25.232Z,101881.25
2022-11-05T21:08:53.888Z,101882.06
2022-11-05T21:11:21.869Z,101864.50
2022-11-05T21:13:48.898Z,101882.03
2022-11-05T21:16:18.694Z,101878.56
2022-11-05T21:18:46.731Z,101873.34
2022-11-05T21:21:18.353Z,101875.88
2022-11-05T21:23:45.117Z,101882.03
2022-11-05T21:26:13.353Z,101885.44
2022-11-05T21:28:41.678Z,101887.16
2022-11-05T21:31:09.034Z,101884.50
2022-11-05T21:33:35.809Z,101879.25
2022-11-05T21:36:12.412Z,101867.00
2022-11-05T21:38:40.054Z,101884.44
2022-11-05T21:41:08.261Z,101893.16
2022-11-05T21:43:35.778Z,101891.22
2022-11-05T21:46:04.138Z,101892.91
2022-11-05T21:48:30.880Z,101892.03
2022-11-05T21:54:36.663Z,101887.44
2022-11-05T21:57:21.973Z,101882.28
2022-11-05T21:59:49.618Z,101883.06
2022-11-05T22:02:28.528Z,101875.06
2022-11-05T22:04:58.303Z,101882.75
2022-11-05T22:07:28.043Z,101887.94
2022-11-05T22:09:54.947Z,101882.75
2022-11-05T22:12:22.267Z,101876.56
2022-11-05T22:14:48.907Z,101885.50
2022-11-05T22:17:15.894Z,101886.31
2022-11-05T22:19:42.736Z,101893.34
2022-11-05T22:22:09.831Z,101892.53
2022-11-05T22:24:37.299Z,101876.78
2022-11-05T22:27:07.413Z,101886.44
2022-11-05T22:29:34.280Z,101877.69
2022-11-05T22:32:00.919Z,101895.28
2022-11-05T22:34:27.688Z,101905.75
2022-11-05T22:36:55.223Z,101901.38
2022-11-05T22:39:22.375Z,101877.53
2022-11-05T22:41:50.769Z,101899.53
2022-11-05T22:44:17.363Z,101895.97
2022-11-05T22:46:44.429Z,101910.78
2022-11-05T22:49:11.144Z,101908.94
2022-11-05T22:51:39.533Z,101914.03
2022-11-05T22:54:07.601Z,101915.75
2022-11-05T22:56:37.738Z,101914.94
2022-11-05T22:59:05.480Z,101875.28
2022-11-05T23:01:32.169Z,101914.75
2022-11-05T23:03:59.614Z,101914.59
2022-11-05T23:06:48.546Z,101919.63
2022-11-05T23:09:40.712Z,101913.56
2022-11-05T23:12:19.523Z,101909.41
2022-11-05T23:14:46.161Z,101912.06
2022-11-05T23:17:31.273Z,101910.28
2022-11-05T23:20:16.771Z,101912.19
2022-11-05T23:23:02.243Z,101917.38
2022-11-05T23:25:28.887Z,101899.97
2022-11-05T23:27:55.557Z,101906.94
2022-11-05T23:30:25.011Z,101916.41
2022-11-05T23:32:53.227Z,101906.00
2022-11-05T23:35:40.089Z,101915.59
2022-11-05T23:38:26.092Z,101922.47
2022-11-05T23:41:11.130Z,101918.88
2022-11-05T23:43:57.716Z,101921.63
2022-11-05T23:46:42.548Z,101928.47
2022-11-05T23:49:09.417Z,101937.97
2022-11-05T23:51:35.998Z,101931.91
2022-11-05T23:54:02.606Z,101943.94
2022-11-05T23:56:31.492Z,101943.03
2022-11-05T23:58:58.193Z,101936.19
